createdAt,value
2023-04-27T00:02:10.843Z,1.00
2023-04-27T00:06:13.652Z,1.02
2023-04-27T00:10:15.145Z,1.04
2023-04-27T00:14:16.544Z,1.03
2023-04-27T00:18:18.008Z,0.93
2023-04-27T00:22:20.825Z,0.90
2023-04-27T00:26:22.241Z,0.85
2023-04-27T00:30:23.708Z,0.73
2023-04-27T00:34:25.172Z,0.67
2023-04-27T00:38:28.621Z,0.65
2023-04-27T00:42:30.220Z,0.61
2023-04-27T00:46:32.689Z,0.58
2023-04-27T00:50:34.665Z,0.58
2023-04-27T00:54:38.808Z,0.53
2023-04-27T00:58:40.240Z,0.55
2023-04-27T01:02:42.347Z,0.61
2023-04-27T01:06:44.059Z,0.69
2023-04-27T01:10:46.801Z,0.68
2023-04-27T01:14:48.328Z,0.62
2023-04-27T01:18:49.718Z,0.53
2023-04-27T01:22:51.120Z,0.42
2023-04-27T01:26:53.867Z,0.36
2023-04-27T01:30:55.321Z,0.24
2023-04-27T01:34:57.361Z,0.16
2023-04-27T01:38:58.782Z,0.12
2023-04-27T01:43:01.522Z,0.17
2023-04-27T01:47:02.940Z,0.19
2023-04-27T01:51:04.494Z,0.23
2023-04-27T01:55:07.079Z,0.29
2023-04-27T01:59:09.818Z,0.32
2023-04-27T02:03:11.456Z,0.31
2023-04-27T02:07:13.014Z,0.24
2023-04-27T02:11:14.470Z,0.24
2023-04-27T02:15:17.369Z,0.25
2023-04-27T02:19:18.774Z,0.19
2023-04-27T02:23:20.179Z,0.10
2023-04-27T02:27:21.585Z,0.03
2023-04-27T02:31:25.101Z,-0.01
2023-04-27T02:35:26.571Z,-0.04
2023-04-27T02:39:27.965Z,-0.07
2023-04-27T02:43:29.443Z,-0.11
2023-04-27T02:47:32.215Z,-0.09
2023-04-27T02:51:34.272Z,-0.23
2023-04-27T02:55:35.693Z,-0.56
2023-04-27T02:59:37.073Z,-0.62
2023-04-27T03:03:40.026Z,-0.82
2023-04-27T03:07:41.570Z,-0.85
2023-04-27T03:11:42.976Z,-0.71
2023-04-27T03:15:44.384Z,-0.67
2023-04-27T03:19:48.310Z,-0.68
2023-04-27T03:23:49.851Z,-0.67
2023-04-27T03:27:51.255Z,-0.62
2023-04-27T03:31:52.669Z,-0.60
2023-04-27T03:35:58.761Z,-0.67
2023-04-27T03:40:00.169Z,-0.76
2023-04-27T03:44:01.608Z,-0.81
2023-04-27T03:48:03.177Z,-0.91
2023-04-27T03:52:06.067Z,-0.91
2023-04-27T03:56:07.568Z,-0.93
2023-04-27T04:00:09.976Z,-1.02
2023-04-27T04:04:11.541Z,-1.20
2023-04-27T04:08:14.516Z,-1.26
2023-04-27T04:12:15.915Z,-1.24
2023-04-27T04:16:17.411Z,-1.09
2023-04-27T04:20:18.839Z,-1.12
2023-04-27T04:24:21.597Z,-1.14
2023-04-27T04:28:23.120Z,-1.09
2023-04-27T04:32:24.671Z,-1.05
2023-04-27T04:36:26.096Z,-0.98
2023-04-27T04:40:29.262Z,-0.90
2023-04-27T04:44:30.665Z,-0.93
2023-04-27T04:48:32.064Z,-0.80
2023-04-27T04:52:33.468Z,-0.64
2023-04-27T04:56:36.213Z,-0.34
2023-04-27T05:00:37.620Z,0.01
2023-04-27T05:04:39.148Z,0.35
2023-04-27T05:08:40.559Z,0.69
2023-04-27T05:12:43.297Z,1.03
2023-04-27T05:16:44.795Z,1.36
2023-04-27T05:20:46.489Z,1.60
2023-04-27T05:24:47.907Z,1.77
2023-04-27T05:28:51.106Z,1.97
2023-04-27T05:32:52.546Z,2.09
2023-04-27T05:36:54.009Z,2.20
2023-04-27T05:40:55.754Z,2.33
2023-04-27T05:44:58.510Z,2.47
2023-04-27T05:49:00.324Z,2.64
2023-04-27T05:53:01.752Z,2.80
2023-04-27T05:57:03.493Z,2.84
2023-04-27T06:01:06.369Z,2.96
2023-04-27T06:05:08.630Z,3.08
2023-04-27T06:09:10.114Z,3.26
2023-04-27T06:13:11.614Z,3.31
2023-04-27T06:17:14.357Z,3.44
2023-04-27T06:21:16.145Z,3.51
2023-04-27T06:25:17.755Z,3.69
2023-04-27T06:29:19.183Z,3.76
2023-04-27T06:33:21.943Z,3.95
2023-04-27T06:37:23.600Z,4.05
2023-04-27T06:41:26.263Z,4.20
2023-04-27T06:45:28.046Z,4.32
2023-04-27T06:49:31.003Z,4.48
2023-04-27T06:53:32.588Z,4.60
2023-04-27T06:57:34.198Z,4.68
2023-04-27T07:01:36.330Z,4.78
2023-04-27T07:05:39.168Z,4.90
2023-04-27T07:09:40.609Z,4.93
2023-04-27T07:13:42.040Z,5.00
2023-04-27T07:17:43.504Z,5.11
2023-04-27T07:21:46.584Z,5.22
2023-04-27T07:25:48.015Z,5.38
2023-04-27T07:29:49.499Z,5.67
2023-04-27T07:33:51.017Z,5.77
2023-04-27T07:37:53.921Z,5.86
2023-04-27T07:41:55.397Z,6.00
2023-04-27T07:45:56.957Z,6.17
2023-04-27T07:49:58.427Z,6.36
2023-04-27T07:54:01.424Z,6.32
2023-04-27T07:58:05.062Z,6.39
2023-04-27T08:02:17.525Z,6.43
2023-04-27T08:06:19.834Z,6.52
2023-04-27T08:10:23.536Z,6.83
2023-04-27T08:14:25.098Z,6.74
2023-04-27T08:18:26.666Z,7.42
2023-04-27T08:22:28.136Z,7.28
2023-04-27T08:26:30.979Z,7.55
2023-04-27T08:30:32.800Z,7.50
2023-04-27T08:34:34.313Z,7.25
2023-04-27T08:38:35.816Z,7.55
2023-04-27T08:42:40.328Z,7.91
2023-04-27T08:46:41.932Z,7.89
2023-04-27T08:50:44.843Z,7.97
2023-04-27T08:54:46.255Z,7.91
2023-04-27T08:58:49.430Z,8.29
2023-04-27T09:02:51.105Z,8.40
2023-04-27T09:06:52.632Z,8.52
2023-04-27T09:10:54.044Z,8.76
2023-04-27T09:15:01.569Z,8.45
2023-04-27T09:19:03.009Z,8.37
2023-04-27T09:23:04.455Z,8.74
2023-04-27T09:27:07.124Z,9.13
2023-04-27T09:31:09.918Z,9.48
2023-04-27T09:35:21.496Z,9.63
2023-04-27T09:39:23.000Z,9.89
2023-04-27T09:43:24.562Z,9.96
2023-04-27T09:47:27.448Z,9.80
2023-04-27T09:51:29.037Z,9.40
2023-04-27T09:55:36.260Z,9.36
2023-04-27T09:59:54.178Z,9.02
2023-04-27T10:04:13.124Z,8.97
2023-04-27T10:08:15.166Z,9.11
2023-04-27T10:12:18.755Z,9.83
2023-04-27T10:16:21.310Z,10.47
2023-04-27T10:20:30.868Z,10.51
2023-04-27T10:24:34.881Z,10.25
2023-04-27T10:28:38.331Z,9.67
2023-04-27T10:32:50.264Z,9.38
2023-04-27T10:37:05.463Z,9.23
2023-04-27T10:41:14.228Z,9.29
2023-04-27T10:45:28.508Z,9.34
2023-04-27T10:49:31.842Z,9.44
2023-04-27T10:53:37.969Z,9.41
2023-04-27T10:57:46.242Z,9.77
2023-04-27T11:01:48.849Z,10.47
2023-04-27T11:05:59.701Z,10.81
2023-04-27T11:10:03.659Z,10.57
2023-04-27T11:14:05.122Z,10.80
2023-04-27T11:18:07.059Z,11.11
2023-04-27T11:22:08.507Z,10.49
2023-04-27T11:26:12.376Z,10.35
2023-04-27T11:30:21.300Z,10.81
2023-04-27T11:34:24.109Z,10.72
2023-04-27T11:38:26.114Z,10.60
2023-04-27T11:42:29.098Z,10.98
2023-04-27T11:46:30.817Z,11.05
2023-04-27T11:50:32.307Z,11.64
2023-04-27T11:54:33.746Z,11.44
2023-04-27T11:58:38.070Z,11.30
2023-04-27T12:02:40.067Z,10.92
2023-04-27T12:06:41.558Z,10.64
2023-04-27T12:10:43.028Z,11.04
2023-04-27T12:14:45.927Z,11.40
2023-04-27T12:18:47.642Z,11.34
2023-04-27T12:22:49.037Z,11.64
2023-04-27T12:26:50.541Z,11.35
2023-04-27T12:30:53.345Z,12.01
2023-04-27T12:34:54.754Z,13.59
2023-04-27T12:38:58.931Z,15.67
2023-04-27T12:43:01.338Z,15.53
2023-04-27T12:47:04.268Z,13.56
2023-04-27T12:51:06.103Z,11.76
2023-04-27T12:55:15.210Z,12.09
2023-04-27T12:59:22.963Z,14.58
2023-04-27T13:03:25.926Z,15.64
2023-04-27T13:07:27.425Z,16.03
2023-04-27T13:11:28.999Z,14.62
2023-04-27T13:15:30.413Z,15.53
2023-04-27T13:19:33.222Z,12.19
2023-04-27T13:23:34.658Z,15.03
2023-04-27T13:27:36.145Z,15.96
2023-04-27T13:31:37.744Z,14.87
2023-04-27T13:35:40.569Z,16.76
2023-04-27T13:39:41.983Z,17.65
2023-04-27T13:43:43.388Z,17.40
2023-04-27T13:47:44.816Z,18.06
2023-04-27T13:51:47.564Z,18.20
2023-04-27T13:55:48.975Z,18.25
2023-04-27T13:59:50.373Z,18.25
2023-04-27T14:03:51.969Z,18.06
2023-04-27T14:07:54.805Z,18.17
2023-04-27T14:11:57.389Z,15.20
2023-04-27T14:15:58.917Z,16.30
2023-04-27T14:20:00.318Z,16.27
2023-04-27T14:24:03.334Z,16.99
2023-04-27T14:28:05.980Z,18.14
2023-04-27T14:32:07.366Z,17.72
2023-04-27T14:36:09.307Z,16.32
2023-04-27T14:40:13.614Z,15.82
2023-04-27T14:44:15.014Z,15.64
2023-04-27T14:48:16.460Z,15.03
2023-04-27T14:52:17.933Z,14.08
2023-04-27T14:56:21.063Z,13.19
2023-04-27T15:00:22.615Z,12.98
2023-04-27T15:04:24.142Z,12.63
2023-04-27T15:08:25.728Z,12.85
2023-04-27T15:12:28.473Z,12.35
2023-04-27T15:16:30.114Z,11.77
2023-04-27T15:20:31.617Z,11.84
2023-04-27T15:24:33.021Z,11.36
2023-04-27T15:28:35.884Z,11.43
2023-04-27T15:32:37.317Z,11.51
2023-04-27T15:36:38.737Z,11.08
2023-04-27T15:40:40.461Z,11.05
2023-04-27T15:44:43.218Z,11.22
2023-04-27T15:48:44.651Z,10.71
2023-04-27T15:52:46.105Z,10.94
2023-04-27T15:56:47.517Z,10.98
2023-04-27T16:00:50.391Z,11.02
2023-04-27T16:04:54.869Z,11.15
2023-04-27T16:08:56.281Z,10.77
2023-04-27T16:12:57.807Z,10.86
2023-04-27T16:17:03.393Z,10.95
2023-04-27T16:21:04.928Z,10.92
2023-04-27T16:25:06.754Z,10.94
2023-04-27T16:29:08.366Z,10.72
2023-04-27T16:33:11.255Z,10.70
2023-04-27T16:37:12.958Z,10.59
2023-04-27T16:41:14.348Z,10.43
2023-04-27T16:45:15.907Z,10.13
2023-04-27T16:49:18.750Z,10.21
2023-04-27T16:53:20.238Z,10.16
2023-04-27T16:57:21.739Z,9.90
2023-04-27T17:01:24.249Z,9.85
2023-04-27T17:05:27.102Z,9.79
2023-04-27T17:09:28.509Z,9.57
2023-04-27T17:13:29.915Z,9.49
2023-04-27T17:17:31.683Z,9.30
2023-04-27T17:21:34.454Z,9.26
2023-04-27T17:25:35.891Z,9.11
2023-04-27T17:29:37.324Z,8.82
2023-04-27T17:33:38.759Z,8.62
2023-04-27T17:37:41.506Z,8.56
2023-04-27T17:41:42.954Z,8.41
2023-04-27T17:45:44.390Z,8.28
2023-04-27T17:49:45.820Z,7.89
2023-04-27T17:53:48.587Z,7.64
2023-04-27T17:57:50.140Z,7.35
2023-04-27T18:01:51.597Z,7.20
2023-04-27T18:05:53.076Z,6.99
2023-04-27T18:09:55.853Z,6.76
2023-04-27T18:13:57.275Z,6.60
2023-04-27T18:17:58.728Z,6.46
2023-04-27T18:22:00.254Z,6.34
2023-04-27T18:26:03.172Z,6.16
2023-04-27T18:30:05.770Z,6.06
2023-04-27T18:34:07.226Z,5.77
2023-04-27T18:38:08.700Z,5.59
2023-04-27T18:42:11.430Z,5.48
2023-04-27T18:46:12.851Z,5.28
2023-04-27T18:50:14.275Z,5.17
2023-04-27T18:54:15.681Z,5.11
2023-04-27T18:58:18.468Z,5.04
2023-04-27T19:02:19.919Z,4.99
2023-04-27T19:06:21.613Z,4.91
2023-04-27T19:10:23.085Z,4.80
2023-04-27T19:14:25.872Z,4.67
2023-04-27T19:18:27.304Z,4.52
2023-04-27T19:22:29.055Z,4.44
2023-04-27T19:26:30.888Z,4.26
2023-04-27T19:30:33.805Z,4.15
2023-04-27T19:34:35.383Z,4.14
2023-04-27T19:38:36.888Z,4.03
2023-04-27T19:42:38.319Z,4.06
2023-04-27T19:46:41.131Z,4.06
2023-04-27T19:50:43.360Z,4.00
2023-04-27T19:54:44.775Z,4.04
2023-04-27T19:58:46.222Z,3.98
2023-04-27T20:02:49.728Z,3.84
2023-04-27T20:06:51.310Z,3.80
2023-04-27T20:10:52.736Z,3.81
2023-04-27T20:14:54.141Z,3.87
2023-04-27T20:18:56.895Z,3.84
2023-04-27T20:22:58.313Z,3.77
2023-04-27T20:26:59.797Z,3.79
2023-04-27T20:31:01.305Z,3.79
2023-04-27T20:35:04.460Z,3.65
2023-04-27T20:39:05.928Z,3.50
2023-04-27T20:43:07.468Z,3.41
2023-04-27T20:47:08.883Z,3.32
2023-04-27T20:51:11.857Z,3.18
2023-04-27T20:55:13.403Z,3.13
2023-04-27T20:59:14.821Z,3.16
2023-04-27T21:03:16.339Z,3.02
2023-04-27T21:07:19.194Z,2.94
2023-04-27T21:11:20.626Z,2.95
2023-04-27T21:15:22.305Z,2.99
2023-04-27T21:19:23.730Z,3.17
2023-04-27T21:23:26.589Z,3.12
2023-04-27T21:27:28.155Z,2.98
2023-04-27T21:31:29.591Z,2.88
2023-04-27T21:35:31.383Z,2.84
2023-04-27T21:39:34.130Z,2.83
2023-04-27T21:43:35.619Z,2.85
2023-04-27T21:47:37.148Z,2.87
2023-04-27T21:51:38.612Z,2.83
2023-04-27T21:55:41.576Z,2.82
2023-04-27T21:59:43.040Z,2.77
2023-04-27T22:03:44.600Z,2.64
2023-04-27T22:07:46.248Z,2.57
2023-04-27T22:11:48.995Z,2.54
2023-04-27T22:15:50.428Z,2.55
2023-04-27T22:19:51.860Z,2.56
2023-04-27T22:23:53.268Z,2.47
2023-04-27T22:27:55.993Z,2.53
2023-04-27T22:31:57.825Z,2.47
2023-04-27T22:35:59.679Z,2.39
2023-04-27T22:40:01.127Z,2.43
2023-04-27T22:44:03.979Z,2.35
2023-04-27T22:48:05.671Z,2.31
2023-04-27T22:52:07.133Z,2.32
2023-04-27T22:56:08.553Z,2.31
2023-04-27T23:00:12.242Z,2.37
2023-04-27T23:04:13.856Z,2.66
2023-04-27T23:08:15.577Z,2.85
2023-04-27T23:12:16.970Z,2.91
2023-04-27T23:16:19.708Z,3.11
2023-04-27T23:20:28.105Z,3.03
2023-04-27T23:24:30.543Z,2.80
2023-04-27T23:28:31.943Z,2.62
2023-04-27T23:32:35.087Z,2.50
2023-04-27T23:36:36.508Z,2.40
2023-04-27T23:40:37.906Z,2.39
2023-04-27T23:44:39.297Z,2.36
2023-04-27T23:48:42.020Z,2.33
2023-04-27T23:52:43.417Z,2.32
2023-04-27T23:56:44.835Z,2.41
